Time;durP1;ratioP1;P1;durP2;ratioP2;P2;SDS_P1;SDS_P2;PMS_P1;PMS_P2;Temp;Humidity;BMP_temperature;BMP_pressure;BME280_temperature;BME280_humidity;BME280_pressure;Samples;Min_cycle;Max_cycle;Signal;HPM_P1;HPM_P2
2021/01/18 00:25:39;;;;;;;5.87;4.10;;;;;;;;;;6245918;22;20174;-74
2021/01/18 00:28:08;;;;;;;8.40;4.77;;;;;;;;;;6215815;23;20516;-77
2021/01/18 00:30:39;;;;;;;8.03;4.97;;;;;;;;;;6190887;23;20168;-76
2021/01/18 00:33:08;;;;;;;8.23;4.87;;;;;;;;;;6181367;23;20203;-77
2021/01/18 00:35:36;;;;;;;7.97;5.03;;;;;;;;;;6161753;23;20176;-76
2021/01/18 00:38:05;;;;;;;8.17;5.53;;;;;;;;;;6162496;23;20180;-77
2021/01/18 00:40:34;;;;;;;9.00;5.10;;;;;;;;;;6163162;23;20168;-76
2021/01/18 00:43:03;;;;;;;7.57;4.77;;;;;;;;;;6167044;23;20192;-77
2021/01/18 00:45:33;;;;;;;9.50;5.30;;;;;;;;;;6185369;23;20196;-77
2021/01/18 00:48:01;;;;;;;8.57;5.83;;;;;;;;;;6160315;23;20177;-77
2021/01/18 00:50:31;;;;;;;9.47;5.07;;;;;;;;;;6140335;23;20164;-77
2021/01/18 00:53:00;;;;;;;9.37;4.80;;;;;;;;;;6135659;23;20188;-76
2021/01/18 00:55:32;;;;;;;6.93;4.50;;;;;;;;;;6160302;23;20644;-77
2021/01/18 00:58:12;;;;;;;5.83;3.83;;;;;;;;;;6160922;23;20167;-77
2021/01/18 01:00:48;;;;;;;6.30;3.87;;;;;;;;;;6161347;23;20632;-77
2021/01/18 01:03:19;;;;;;;5.93;3.90;;;;;;;;;;6161865;23;20203;-77
2021/01/18 01:05:48;;;;;;;5.60;3.60;;;;;;;;;;6183711;23;20169;-78
2021/01/18 01:08:18;;;;;;;4.70;3.60;;;;;;;;;;6194050;23;20176;-77
2021/01/18 01:10:47;;;;;;;8.20;3.70;;;;;;;;;;6186563;23;20229;-78
2021/01/18 01:13:16;;;;;;;4.73;2.57;;;;;;;;;;6195810;23;20196;-77
2021/01/18 01:15:45;;;;;;;5.50;3.13;;;;;;;;;;6136317;23;20177;-77
2021/01/18 01:18:13;;;;;;;5.23;3.03;;;;;;;;;;6135537;23;20504;-77
2021/01/18 01:20:42;;;;;;;5.67;3.53;;;;;;;;;;6159148;23;20179;-78
2021/01/18 01:23:10;;;;;;;5.47;3.13;;;;;;;;;;6184432;23;20664;-77
2021/01/18 01:25:39;;;;;;;5.93;3.33;;;;;;;;;;6160282;23;20172;-77
2021/01/18 01:28:08;;;;;;;4.30;2.97;;;;;;;;;;6186336;23;20511;-77
2021/01/18 01:30:57;;;;;;;12.13;5.70;;;;;;;;;;6160973;23;20168;-77
2021/01/18 01:33:26;;;;;;;8.93;5.80;;;;;;;;;;6160894;23;20188;-77
2021/01/18 01:35:55;;;;;;;4.60;2.90;;;;;;;;;;6135991;23;20168;-77
2021/01/18 01:38:23;;;;;;;4.90;3.43;;;;;;;;;;6159728;23;20545;-77
2021/01/18 01:40:51;;;;;;;6.63;3.13;;;;;;;;;;6135679;23;20165;-79
2021/01/18 01:43:19;;;;;;;6.23;4.00;;;;;;;;;;6185686;23;20203;-77
2021/01/18 01:45:48;;;;;;;6.10;3.60;;;;;;;;;;6160761;23;20175;-77
2021/01/18 01:48:18;;;;;;;7.17;3.40;;;;;;;;;;6135874;23;20172;-77
2021/01/18 01:50:48;;;;;;;7.93;3.77;;;;;;;;;;6134598;23;20168;-77
2021/01/18 01:56:33;;;;;;;5.27;3.60;;;;;;;;;;6245789;22;20209;-76
2021/01/18 01:59:03;;;;;;;5.17;3.70;;;;;;;;;;6195084;23;20170;-79
2021/01/18 02:01:32;;;;;;;5.43;3.70;;;;;;;;;;6246100;23;20176;-79
2021/01/18 02:04:02;;;;;;;5.57;3.77;;;;;;;;;;6219617;23;20201;-77
2021/01/18 02:06:31;;;;;;;5.37;3.10;;;;;;;;;;6219579;23;20221;-77
2021/01/18 02:08:59;;;;;;;4.83;3.37;;;;;;;;;;6194618;23;20171;-77
2021/01/18 02:11:28;;;;;;;5.40;3.20;;;;;;;;;;6220110;23;20170;-77
2021/01/18 02:14:08;;;;;;;6.00;3.10;;;;;;;;;;6219554;23;20513;-77
2021/01/18 02:16:44;;;;;;;3.40;2.80;;;;;;;;;;6194403;23;20175;-77
2021/01/18 02:19:53;;;;;;;4.50;2.93;;;;;;;;;;6195230;23;20649;-77
2021/01/18 02:22:56;;;;;;;7.93;3.43;;;;;;;;;;6194897;22;20170;-78
2021/01/18 02:25:32;;;;;;;5.70;3.20;;;;;;;;;;6190357;23;20553;-77
2021/01/18 02:28:21;;;;;;;3.03;2.10;;;;;;;;;;6195200;23;20498;-78
2021/01/18 02:31:49;;;;;;;4.60;2.30;;;;;;;;;;6219306;23;20175;-77
2021/01/18 02:34:47;;;;;;;5.27;2.43;;;;;;;;;;6179510;22;20203;-77
2021/01/18 02:37:57;;;;;;;3.43;1.93;;;;;;;;;;6190012;23;20172;-77
2021/01/18 02:40:29;;;;;;;3.83;2.67;;;;;;;;;;6189870;23;20176;-77
2021/01/18 02:43:02;;;;;;;4.87;2.30;;;;;;;;;;6215294;23;20535;-77
2021/01/18 02:45:32;;;;;;;2.33;2.13;;;;;;;;;;6189612;23;20198;-77
2021/01/18 02:48:01;;;;;;;6.87;2.70;;;;;;;;;;6190034;23;20162;-77
2021/01/18 02:50:32;;;;;;;4.17;2.50;;;;;;;;;;6189329;23;20172;-76
2021/01/18 02:59:42;;;;;;;5.40;2.40;;;;;;;;;;6246685;22;20537;-77
2021/01/18 03:02:18;;;;;;;3.50;2.33;;;;;;;;;;6218272;23;20173;-77
2021/01/18 03:05:05;;;;;;;4.33;2.93;;;;;;;;;;6214812;23;20191;-77
2021/01/18 03:07:43;;;;;;;5.53;2.53;;;;;;;;;;6190340;23;20190;-77
2021/01/18 03:10:18;;;;;;;2.53;2.13;;;;;;;;;;6164913;23;20167;-77
2021/01/18 03:41:23;;;;;;;5.03;2.00;;;;;;;;;;6246764;22;20206;-77
2021/01/18 03:43:51;;;;;;;4.23;2.60;;;;;;;;;;6221667;23;20194;-79
2021/01/18 03:46:20;;;;;;;3.77;2.37;;;;;;;;;;6197379;23;20175;-79
2021/01/18 03:48:50;;;;;;;4.07;2.10;;;;;;;;;;6197152;23;20163;-76
2021/01/18 03:51:18;;;;;;;3.33;2.40;;;;;;;;;;6221337;23;20185;-77
2021/01/18 04:21:10;;;;;;;3.13;2.00;;;;;;;;;;6245789;22;20189;-76
2021/01/18 04:23:39;;;;;;;2.40;1.60;;;;;;;;;;6165978;23;20194;-79
2021/01/18 04:26:08;;;;;;;2.90;1.80;;;;;;;;;;6190917;23;20195;-77
2021/01/18 04:28:37;;;;;;;2.83;1.83;;;;;;;;;;6191461;23;20179;-77
2021/01/18 04:31:05;;;;;;;3.10;2.20;;;;;;;;;;6216234;23;20159;-76
2021/01/18 05:25:19;;;;;;;6.90;2.40;;;;;;;;;;6246931;22;20213;-77
2021/01/18 05:27:59;;;;;;;4.17;2.03;;;;;;;;;;6247617;23;20178;-77
2021/01/18 05:30:28;;;;;;;4.43;1.93;;;;;;;;;;6208208;23;20173;-77
2021/01/18 06:36:55;;;;;;;4.57;2.63;;;;;;;;;;6241067;22;20230;-80
2021/01/18 06:39:25;;;;;;;6.27;2.40;;;;;;;;;;6185943;23;20215;-79
2021/01/18 06:41:58;;;;;;;3.80;3.03;;;;;;;;;;6180863;23;20186;-80
2021/01/18 06:44:38;;;;;;;7.10;3.03;;;;;;;;;;6207461;23;20525;-80
2021/01/18 06:47:27;;;;;;;5.97;2.90;;;;;;;;;;6208555;23;20162;-79
2021/01/18 06:50:01;;;;;;;6.07;2.37;;;;;;;;;;6237688;23;20170;-79
2021/01/18 06:52:33;;;;;;;6.53;2.50;;;;;;;;;;6212936;22;20514;-79
2021/01/18 06:55:21;;;;;;;6.60;2.90;;;;;;;;;;5133311;27;20552;-81
2021/01/18 06:57:58;;;;;;;5.23;2.57;;;;;;;;;;5105302;28;20200;-80
2021/01/18 07:00:27;;;;;;;6.17;2.73;;;;;;;;;;5120114;28;20197;-81
2021/01/18 07:02:57;;;;;;;5.63;2.33;;;;;;;;;;5102231;28;20221;-81
2021/01/18 07:05:45;;;;;;;4.67;4.27;;;;;;;;;;5071351;28;20214;-81
2021/01/18 07:08:19;;;;;;;9.67;3.47;;;;;;;;;;5100869;28;20188;-82
2021/01/18 07:10:57;;;;;;;5.27;2.77;;;;;;;;;;5088758;28;20201;-81
2021/01/18 07:13:27;;;;;;;5.13;2.60;;;;;;;;;;5106464;28;20234;-81
2021/01/18 07:16:08;;;;;;;5.43;2.40;;;;;;;;;;5117188;28;20196;-80
2021/01/18 07:18:54;;;;;;;3.63;2.87;;;;;;;;;;5078230;28;20208;-81
2021/01/18 07:21:27;;;;;;;4.37;2.53;;;;;;;;;;5071343;28;20217;-81
2021/01/18 07:24:11;;;;;;;5.40;2.50;;;;;;;;;;5087401;28;20232;-81
2021/01/18 07:26:51;;;;;;;6.33;3.20;;;;;;;;;;5082535;28;20197;-80
2021/01/18 07:29:22;;;;;;;3.93;2.70;;;;;;;;;;5097340;28;20204;-80
2021/01/18 07:31:55;;;;;;;4.67;2.73;;;;;;;;;;5881125;22;20193;-79
2021/01/18 07:34:26;;;;;;;3.80;2.77;;;;;;;;;;5035420;28;20227;-79
2021/01/18 07:37:07;;;;;;;7.30;2.97;;;;;;;;;;5063719;28;20203;-79
2021/01/18 07:39:38;;;;;;;5.17;3.10;;;;;;;;;;5064693;28;20550;-79
2021/01/18 07:42:40;;;;;;;4.90;3.00;;;;;;;;;;5050265;28;20211;-80
2021/01/18 07:45:17;;;;;;;4.03;2.90;;;;;;;;;;5066793;28;21264;-80
2021/01/18 07:48:06;;;;;;;5.87;2.90;;;;;;;;;;5067478;28;20575;-82
2021/01/18 07:50:39;;;;;;;6.27;3.20;;;;;;;;;;5079911;28;20573;-81
2021/01/18 07:53:09;;;;;;;5.23;2.83;;;;;;;;;;5068477;28;20221;-81
2021/01/18 07:55:44;;;;;;;6.20;2.80;;;;;;;;;;5070601;28;20229;-81
2021/01/18 07:58:15;;;;;;;5.67;2.80;;;;;;;;;;5051914;28;20213;-80
2021/01/18 08:00:44;;;;;;;5.47;2.70;;;;;;;;;;5085672;28;20213;-79
2021/01/18 08:03:27;;;;;;;4.30;2.60;;;;;;;;;;5051308;28;20227;-79
2021/01/18 08:06:09;;;;;;;5.57;2.87;;;;;;;;;;5063131;28;20194;-78
2021/01/18 08:08:38;;;;;;;6.57;2.90;;;;;;;;;;5039063;28;20214;-80
2021/01/18 08:11:16;;;;;;;8.63;3.23;;;;;;;;;;5053221;28;20213;-80
2021/01/18 08:13:47;;;;;;;8.60;3.10;;;;;;;;;;5046214;28;20219;-79
2021/01/18 08:16:23;;;;;;;7.97;3.03;;;;;;;;;;5062394;28;20566;-80
2021/01/18 08:19:01;;;;;;;4.67;3.30;;;;;;;;;;5053228;28;20206;-81
2021/01/18 08:22:00;;;;;;;4.83;3.20;;;;;;;;;;5026052;28;20226;-80
2021/01/18 08:24:56;;;;;;;5.53;2.80;;;;;;;;;;5020953;28;20226;-80
2021/01/18 08:27:46;;;;;;;4.40;3.43;;;;;;;;;;5046023;28;20234;-80
2021/01/18 08:30:34;;;;;;;5.33;3.43;;;;;;;;;;5024631;28;20682;-79
2021/01/18 08:33:04;;;;;;;7.07;3.87;;;;;;;;;;5042717;28;20230;-80
2021/01/18 08:35:37;;;;;;;7.10;3.50;;;;;;;;;;5054962;28;20215;-79
2021/01/18 08:38:07;;;;;;;6.80;3.50;;;;;;;;;;5027826;28;20203;-79
2021/01/18 08:40:44;;;;;;;7.13;3.70;;;;;;;;;;5017616;28;20211;-79
2021/01/18 08:43:13;;;;;;;5.07;2.93;;;;;;;;;;5057864;28;20241;-79
2021/01/18 08:45:44;;;;;;;4.67;2.80;;;;;;;;;;5026313;28;20238;-79
2021/01/18 08:48:13;;;;;;;5.40;2.60;;;;;;;;;;5029503;28;20216;-80
2021/01/18 08:50:44;;;;;;;7.20;2.90;;;;;;;;;;5066090;28;20203;-80
2021/01/18 08:53:29;;;;;;;6.33;2.57;;;;;;;;;;5044702;28;20227;-80
2021/01/18 08:55:59;;;;;;;4.07;2.30;;;;;;;;;;5062572;28;20207;-80
2021/01/18 08:58:31;;;;;;;5.37;2.80;;;;;;;;;;5065232;28;20214;-79
2021/01/18 09:01:00;;;;;;;3.17;2.27;;;;;;;;;;5043024;28;20213;-79
2021/01/18 09:03:28;;;;;;;6.47;2.30;;;;;;;;;;5043038;28;20224;-79
2021/01/18 09:05:56;;;;;;;6.97;3.47;;;;;;;;;;5051282;28;20638;-79
2021/01/18 09:08:26;;;;;;;5.60;2.40;;;;;;;;;;5049608;28;20211;-79
2021/01/18 09:10:55;;;;;;;6.13;2.20;;;;;;;;;;5031156;28;20200;-80
2021/01/18 09:13:24;;;;;;;4.10;2.23;;;;;;;;;;5066746;28;20312;-79
2021/01/18 09:15:52;;;;;;;3.77;2.10;;;;;;;;;;5048175;28;20202;-79
2021/01/18 09:18:22;;;;;;;2.63;1.80;;;;;;;;;;5061093;28;20214;-79
2021/01/18 09:20:50;;;;;;;2.67;1.90;;;;;;;;;;5063128;28;20213;-79
2021/01/18 09:23:18;;;;;;;2.73;1.93;;;;;;;;;;5055214;28;20222;-79
2021/01/18 09:26:03;;;;;;;3.00;2.33;;;;;;;;;;5080700;28;20229;-80
2021/01/18 09:28:31;;;;;;;4.97;2.10;;;;;;;;;;5036731;28;20199;-79
2021/01/18 09:31:07;;;;;;;2.80;1.80;;;;;;;;;;5054736;28;20207;-79
2021/01/18 09:33:36;;;;;;;4.77;2.33;;;;;;;;;;5034991;28;20234;-79
2021/01/18 09:36:05;;;;;;;4.33;2.10;;;;;;;;;;5048174;28;20202;-79
2021/01/18 09:38:34;;;;;;;3.47;2.10;;;;;;;;;;5040449;28;20254;-79
2021/01/18 09:41:01;;;;;;;4.07;2.20;;;;;;;;;;5028516;28;20218;-79
2021/01/18 09:43:29;;;;;;;2.57;2.00;;;;;;;;;;5046978;28;20235;-79
2021/01/18 09:45:57;;;;;;;3.80;1.80;;;;;;;;;;5042163;28;20234;-79
2021/01/18 09:48:26;;;;;;;5.83;2.30;;;;;;;;;;5052292;28;20575;-79
2021/01/18 09:50:59;;;;;;;2.70;2.20;;;;;;;;;;5070163;28;20207;-79
2021/01/18 09:53:27;;;;;;;5.03;2.20;;;;;;;;;;5086156;28;20199;-79
2021/01/18 09:55:56;;;;;;;3.70;1.90;;;;;;;;;;5074447;28;20202;-79
2021/01/18 09:58:30;;;;;;;5.20;1.90;;;;;;;;;;5053601;28;20206;-79
2021/01/18 10:00:58;;;;;;;2.60;2.00;;;;;;;;;;5029131;28;20196;-79
2021/01/18 10:03:27;;;;;;;4.00;2.00;;;;;;;;;;5062130;28;20254;-79
2021/01/18 10:06:04;;;;;;;2.50;1.90;;;;;;;;;;5068984;28;20611;-79
2021/01/18 10:08:33;;;;;;;2.30;2.00;;;;;;;;;;5066139;28;20206;-79
2021/01/18 10:11:00;;;;;;;3.10;2.37;;;;;;;;;;5041394;28;20207;-78
2021/01/18 10:13:28;;;;;;;3.60;1.90;;;;;;;;;;5034415;28;20222;-79
2021/01/18 10:16:06;;;;;;;3.43;2.10;;;;;;;;;;5049556;28;20195;-79
2021/01/18 10:18:35;;;;;;;2.27;1.83;;;;;;;;;;5020620;28;20214;-80
2021/01/18 10:21:04;;;;;;;2.50;2.13;;;;;;;;;;5049811;28;20588;-79
2021/01/18 10:23:34;;;;;;;7.10;2.57;;;;;;;;;;5029856;28;20231;-79
2021/01/18 10:26:19;;;;;;;3.67;2.30;;;;;;;;;;5033811;28;20223;-78
2021/01/18 10:28:52;;;;;;;3.23;2.10;;;;;;;;;;5032420;28;20669;-79
2021/01/18 10:31:21;;;;;;;3.30;2.10;;;;;;;;;;5033827;28;20657;-79
2021/01/18 10:34:13;;;;;;;3.80;1.73;;;;;;;;;;5067778;28;20238;-79
2021/01/18 10:36:43;;;;;;;3.00;1.90;;;;;;;;;;5065336;28;20238;-78
2021/01/18 10:39:27;;;;;;;2.43;1.90;;;;;;;;;;5050778;28;20203;-79
2021/01/18 10:42:12;;;;;;;2.87;1.97;;;;;;;;;;5036190;28;20230;-78
2021/01/18 10:44:47;;;;;;;2.60;1.90;;;;;;;;;;5027241;28;20699;-77
2021/01/18 10:47:15;;;;;;;2.63;1.83;;;;;;;;;;5034039;28;20211;-79
2021/01/18 10:49:51;;;;;;;3.33;1.70;;;;;;;;;;5049692;28;20203;-79
2021/01/18 10:52:19;;;;;;;3.30;1.83;;;;;;;;;;5021023;28;20668;-79
2021/01/18 10:54:58;;;;;;;4.70;1.93;;;;;;;;;;5048942;28;20230;-78
2021/01/18 10:57:43;;;;;;;2.90;2.00;;;;;;;;;;5059418;28;20552;-78
2021/01/18 11:00:12;;;;;;;2.60;1.73;;;;;;;;;;5049917;28;20227;-78
2021/01/18 11:02:41;;;;;;;3.73;2.07;;;;;;;;;;5062330;28;20191;-80
2021/01/18 11:05:10;;;;;;;3.17;1.60;;;;;;;;;;5060871;28;20233;-79
2021/01/18 11:07:39;;;;;;;3.93;1.70;;;;;;;;;;5081084;28;20193;-78
2021/01/18 11:10:22;;;;;;;2.50;2.00;;;;;;;;;;5056134;28;20210;-80
2021/01/18 11:12:57;;;;;;;3.67;1.90;;;;;;;;;;5060273;28;20222;-78
2021/01/18 11:15:29;;;;;;;4.00;2.20;;;;;;;;;;5087658;28;20210;-79
2021/01/18 11:17:56;;;;;;;3.30;2.03;;;;;;;;;;5043941;28;20199;-79
2021/01/18 11:20:26;;;;;;;4.10;2.03;;;;;;;;;;5037195;28;20209;-79
2021/01/18 11:22:54;;;;;;;2.20;2.00;;;;;;;;;;5068186;28;20335;-78
2021/01/18 11:25:22;;;;;;;3.70;2.27;;;;;;;;;;5052618;28;20234;-78
2021/01/18 11:27:50;;;;;;;2.70;1.90;;;;;;;;;;5022153;28;20210;-78
2021/01/18 11:30:18;;;;;;;3.77;2.27;;;;;;;;;;5030708;28;20222;-78
2021/01/18 11:32:45;;;;;;;2.00;1.80;;;;;;;;;;5025947;28;20246;-79
2021/01/18 11:35:14;;;;;;;5.73;2.53;;;;;;;;;;5054824;28;20207;-79
2021/01/18 11:37:42;;;;;;;3.17;2.00;;;;;;;;;;5048582;28;20206;-79
2021/01/18 11:40:11;;;;;;;2.77;1.90;;;;;;;;;;5043558;28;20211;-78
2021/01/18 11:42:39;;;;;;;4.47;1.93;;;;;;;;;;5031643;28;20199;-79
2021/01/18 11:45:08;;;;;;;2.47;2.07;;;;;;;;;;5044526;28;20595;-79
2021/01/18 11:47:37;;;;;;;4.03;2.80;;;;;;;;;;5029154;28;20221;-79
2021/01/18 11:50:07;;;;;;;2.30;1.80;;;;;;;;;;5036614;28;20198;-79
2021/01/18 11:52:41;;;;;;;2.53;1.90;;;;;;;;;;5049255;28;20299;-79
2021/01/18 11:55:10;;;;;;;4.47;3.40;;;;;;;;;;5035735;28;20676;-79
2021/01/18 11:57:42;;;;;;;2.50;1.80;;;;;;;;;;5041400;28;20708;-78
2021/01/18 12:00:12;;;;;;;4.03;1.90;;;;;;;;;;5049578;28;20219;-79
2021/01/18 12:02:40;;;;;;;2.30;2.00;;;;;;;;;;5031835;28;20241;-80
2021/01/18 12:05:09;;;;;;;3.37;2.17;;;;;;;;;;5064013;28;20234;-80
2021/01/18 12:07:36;;;;;;;5.27;2.17;;;;;;;;;;5062886;28;20218;-79
2021/01/18 12:10:05;;;;;;;3.30;2.13;;;;;;;;;;5067060;28;20207;-80
2021/01/18 12:12:35;;;;;;;2.83;2.00;;;;;;;;;;5064351;28;20175;-80
2021/01/18 12:15:04;;;;;;;3.37;2.03;;;;;;;;;;5058503;28;20196;-80
2021/01/18 12:17:36;;;;;;;2.53;1.83;;;;;;;;;;5055896;28;20184;-81
2021/01/18 12:20:06;;;;;;;8.03;2.60;;;;;;;;;;5076711;28;20207;-80
2021/01/18 12:22:33;;;;;;;3.70;2.10;;;;;;;;;;5076876;28;20213;-80
2021/01/18 12:25:01;;;;;;;2.93;1.97;;;;;;;;;;5049622;28;20203;-80
2021/01/18 12:27:29;;;;;;;1.90;1.70;;;;;;;;;;5030820;28;20218;-80
2021/01/18 12:30:00;;;;;;;2.97;2.07;;;;;;;;;;5067055;28;20218;-81
2021/01/18 12:32:28;;;;;;;2.00;1.50;;;;;;;;;;5055098;28;20698;-80
2021/01/18 12:34:55;;;;;;;4.33;1.83;;;;;;;;;;5034263;28;20211;-81
2021/01/18 12:37:23;;;;;;;2.00;1.50;;;;;;;;;;5026810;28;20222;-80
2021/01/18 12:39:51;;;;;;;1.93;1.50;;;;;;;;;;5047250;28;20203;-80
2021/01/18 12:42:19;;;;;;;2.73;1.80;;;;;;;;;;5032330;28;20199;-80
2021/01/18 12:44:48;;;;;;;3.63;1.70;;;;;;;;;;5033409;28;20199;-80
2021/01/18 12:47:17;;;;;;;2.73;1.70;;;;;;;;;;5028993;28;20228;-80
2021/01/18 12:49:44;;;;;;;2.07;1.83;;;;;;;;;;5066182;28;20661;-80
2021/01/18 12:52:12;;;;;;;2.40;1.80;;;;;;;;;;5046885;28;20206;-80
2021/01/18 12:54:40;;;;;;;1.40;1.30;;;;;;;;;;5021447;28;20585;-80
2021/01/18 12:57:07;;;;;;;2.73;1.80;;;;;;;;;;5045876;28;20214;-80
2021/01/18 12:59:36;;;;;;;2.20;1.70;;;;;;;;;;5030212;28;20203;-80
2021/01/18 13:02:05;;;;;;;3.47;1.80;;;;;;;;;;5068368;28;20206;-80
2021/01/18 13:04:33;;;;;;;2.77;1.67;;;;;;;;;;5045907;28;20571;-81
2021/01/18 13:07:01;;;;;;;5.47;1.50;;;;;;;;;;5048996;28;20238;-80
2021/01/18 13:09:29;;;;;;;2.13;1.67;;;;;;;;;;5047547;28;20215;-80
2021/01/18 13:11:56;;;;;;;2.50;1.50;;;;;;;;;;5032875;28;20203;-79
2021/01/18 13:14:24;;;;;;;2.80;1.90;;;;;;;;;;5059659;28;20230;-81
2021/01/18 13:16:54;;;;;;;1.80;1.43;;;;;;;;;;5047013;28;20206;-80
2021/01/18 13:19:23;;;;;;;3.23;1.93;;;;;;;;;;5032935;28;20202;-80
2021/01/18 13:21:52;;;;;;;3.37;1.80;;;;;;;;;;5031514;28;20204;-81
2021/01/18 13:24:20;;;;;;;2.70;1.90;;;;;;;;;;5046448;28;20592;-80
2021/01/18 13:26:48;;;;;;;3.67;2.47;;;;;;;;;;5031024;28;20218;-80
2021/01/18 13:29:16;;;;;;;2.20;1.87;;;;;;;;;;5044847;28;20218;-81
2021/01/18 13:31:44;;;;;;;2.53;1.80;;;;;;;;;;5063829;28;20203;-80
2021/01/18 13:34:13;;;;;;;2.40;1.77;;;;;;;;;;5065253;28;20223;-80
2021/01/18 13:36:40;;;;;;;3.17;2.07;;;;;;;;;;5031807;28;20199;-80
2021/01/18 13:39:10;;;;;;;2.53;1.83;;;;;;;;;;5033501;28;20199;-81
2021/01/18 13:41:38;;;;;;;2.50;1.90;;;;;;;;;;5058310;28;20195;-82
2021/01/18 13:44:06;;;;;;;2.60;1.60;;;;;;;;;;5050848;28;20230;-80
2021/01/18 13:46:34;;;;;;;6.87;2.23;;;;;;;;;;5053803;28;20214;-80
2021/01/18 13:49:02;;;;;;;3.17;1.70;;;;;;;;;;5059354;28;20214;-80
2021/01/18 13:51:30;;;;;;;3.17;1.87;;;;;;;;;;5052939;28;20183;-80
2021/01/18 13:53:58;;;;;;;3.00;2.10;;;;;;;;;;5083610;28;20233;-80
2021/01/18 13:56:27;;;;;;;4.07;1.83;;;;;;;;;;5043600;28;20196;-81
2021/01/18 13:58:55;;;;;;;1.93;1.70;;;;;;;;;;5046344;28;20203;-81
2021/01/18 14:01:24;;;;;;;2.40;1.87;;;;;;;;;;5027668;28;20211;-80
2021/01/18 14:03:53;;;;;;;2.03;1.67;;;;;;;;;;5042912;28;20223;-80
2021/01/18 14:06:22;;;;;;;2.23;1.90;;;;;;;;;;5044502;28;20611;-78
2021/01/18 14:08:50;;;;;;;3.43;1.63;;;;;;;;;;5029602;28;20207;-78
2021/01/18 14:11:18;;;;;;;2.27;1.60;;;;;;;;;;5032307;28;20226;-80
2021/01/18 14:13:47;;;;;;;1.80;1.60;;;;;;;;;;5035341;28;20219;-78
2021/01/18 14:16:15;;;;;;;2.63;1.33;;;;;;;;;;5039774;28;20205;-78
2021/01/18 14:18:43;;;;;;;3.37;1.40;;;;;;;;;;5053868;28;20206;-78
2021/01/18 14:21:14;;;;;;;2.60;1.53;;;;;;;;;;5044414;28;20203;-79
2021/01/18 14:23:42;;;;;;;5.60;2.03;;;;;;;;;;5032701;28;20626;-78
2021/01/18 14:26:10;;;;;;;1.57;1.47;;;;;;;;;;5049655;28;20223;-78
2021/01/18 14:28:38;;;;;;;2.20;1.30;;;;;;;;;;5066258;28;20213;-78
2021/01/18 14:31:07;;;;;;;4.93;1.67;;;;;;;;;;5048742;28;20210;-78
2021/01/18 14:33:35;;;;;;;2.03;1.33;;;;;;;;;;5053158;28;20242;-78
2021/01/18 14:36:04;;;;;;;2.30;1.80;;;;;;;;;;5068212;28;20203;-78
2021/01/18 14:38:31;;;;;;;1.50;1.40;;;;;;;;;;5053224;28;20198;-78
2021/01/18 14:40:59;;;;;;;1.67;1.50;;;;;;;;;;5041644;28;20207;-78
2021/01/18 14:43:27;;;;;;;2.63;1.30;;;;;;;;;;5027461;28;20711;-80
2021/01/18 14:45:54;;;;;;;1.97;1.40;;;;;;;;;;5043963;28;20214;-80
2021/01/18 14:48:23;;;;;;;1.70;1.20;;;;;;;;;;5029594;28;20210;-79
2021/01/18 14:50:51;;;;;;;2.23;1.80;;;;;;;;;;5041772;28;20211;-79
2021/01/18 14:53:19;;;;;;;3.63;1.93;;;;;;;;;;5040917;28;20246;-81
2021/01/18 14:55:48;;;;;;;1.60;1.10;;;;;;;;;;5058921;28;20214;-80
2021/01/18 14:58:15;;;;;;;2.13;1.50;;;;;;;;;;5062400;28;20207;-81
2021/01/18 15:00:43;;;;;;;1.80;1.50;;;;;;;;;;5029923;28;21357;-80
2021/01/18 15:03:11;;;;;;;1.90;1.03;;;;;;;;;;5042786;28;20219;-80
2021/01/18 15:05:44;;;;;;;4.93;1.43;;;;;;;;;;5043483;28;20233;-79
2021/01/18 15:08:12;;;;;;;1.37;1.10;;;;;;;;;;5058222;28;20199;-80
2021/01/18 15:10:40;;;;;;;4.80;1.63;;;;;;;;;;5061510;28;20652;-80
2021/01/18 15:13:08;;;;;;;3.00;1.53;;;;;;;;;;5039856;28;20227;-79
2021/01/18 15:15:35;;;;;;;2.33;1.47;;;;;;;;;;5036589;28;20211;-81
2021/01/18 15:18:04;;;;;;;2.03;1.40;;;;;;;;;;5046391;28;20206;-80
2021/01/18 15:20:31;;;;;;;3.53;1.13;;;;;;;;;;5034149;28;20656;-80
2021/01/18 15:23:00;;;;;;;2.33;1.30;;;;;;;;;;5043970;28;20554;-80
2021/01/18 15:25:27;;;;;;;1.80;1.07;;;;;;;;;;5038406;28;20214;-80
2021/01/18 15:27:55;;;;;;;1.30;1.10;;;;;;;;;;5047345;28;20227;-80
2021/01/18 15:30:24;;;;;;;2.27;1.23;;;;;;;;;;5034607;28;20203;-80
2021/01/18 15:32:52;;;;;;;2.73;1.50;;;;;;;;;;5049574;28;20231;-80
2021/01/18 15:35:22;;;;;;;1.40;1.20;;;;;;;;;;5062651;28;20567;-80
2021/01/18 15:38:06;;;;;;;3.23;1.30;;;;;;;;;;5026981;28;20210;-81
2021/01/18 15:40:46;;;;;;;2.60;1.17;;;;;;;;;;5061848;28;20207;-80
2021/01/18 15:43:13;;;;;;;2.47;1.17;;;;;;;;;;5045903;28;20218;-80
2021/01/18 15:45:41;;;;;;;3.20;1.20;;;;;;;;;;5031329;28;20202;-80
2021/01/18 15:48:10;;;;;;;1.53;1.30;;;;;;;;;;5064973;28;20219;-80
2021/01/18 15:50:38;;;;;;;1.93;1.10;;;;;;;;;;5034944;28;20668;-80
2021/01/18 15:53:06;;;;;;;6.23;1.17;;;;;;;;;;5045431;28;20687;-80
2021/01/18 15:55:37;;;;;;;2.97;1.43;;;;;;;;;;5029965;28;20574;-80
2021/01/18 15:58:06;;;;;;;2.70;1.13;;;;;;;;;;5031615;28;20210;-80
2021/01/18 16:00:34;;;;;;;2.47;1.27;;;;;;;;;;5054923;28;20183;-82
2021/01/18 16:03:02;;;;;;;2.33;1.60;;;;;;;;;;5064909;28;20237;-80
2021/01/18 16:05:30;;;;;;;1.57;1.10;;;;;;;;;;5060046;28;20202;-81
2021/01/18 16:08:03;;;;;;;3.63;1.40;;;;;;;;;;5085319;28;20242;-80
2021/01/18 16:10:31;;;;;;;3.43;1.70;;;;;;;;;;5055443;28;20203;-80
2021/01/18 16:12:59;;;;;;;1.90;1.23;;;;;;;;;;5028915;28;20219;-80
2021/01/18 16:15:28;;;;;;;3.53;1.30;;;;;;;;;;5050576;28;20211;-81
2021/01/18 16:17:57;;;;;;;2.03;1.50;;;;;;;;;;5045369;28;20210;-80
2021/01/18 16:20:25;;;;;;;2.20;1.30;;;;;;;;;;5044288;28;21357;-80
2021/01/18 16:22:53;;;;;;;1.53;1.30;;;;;;;;;;5035044;28;20230;-80
2021/01/18 16:25:21;;;;;;;4.00;1.37;;;;;;;;;;5042344;28;20199;-80
2021/01/18 16:27:49;;;;;;;1.63;1.40;;;;;;;;;;5074348;28;20237;-80
2021/01/18 16:30:17;;;;;;;4.53;1.70;;;;;;;;;;5012272;28;20368;-80
2021/01/18 16:32:46;;;;;;;3.33;1.57;;;;;;;;;;5041259;28;20643;-80
2021/01/18 16:35:14;;;;;;;2.70;1.70;;;;;;;;;;5036921;28;20214;-80
2021/01/18 16:37:47;;;;;;;3.37;2.03;;;;;;;;;;5033066;28;20565;-80
2021/01/18 16:40:17;;;;;;;5.90;1.83;;;;;;;;;;5046294;28;20203;-81
2021/01/18 16:42:45;;;;;;;4.40;2.07;;;;;;;;;;5022727;28;20241;-81
2021/01/18 16:45:14;;;;;;;2.10;1.80;;;;;;;;;;5010431;28;20211;-81
2021/01/18 16:47:42;;;;;;;3.43;1.60;;;;;;;;;;5053368;28;20226;-80
2021/01/18 16:50:13;;;;;;;5.77;1.67;;;;;;;;;;5021447;28;20214;-80
2021/01/18 16:52:42;;;;;;;3.83;2.03;;;;;;;;;;5033209;28;20973;-81
2021/01/18 16:55:11;;;;;;;5.70;1.83;;;;;;;;;;5017083;28;20584;-80
2021/01/18 16:57:40;;;;;;;2.77;1.83;;;;;;;;;;5021672;28;20696;-80
2021/01/18 17:00:09;;;;;;;3.37;1.77;;;;;;;;;;5034370;28;20214;-80
2021/01/18 17:02:37;;;;;;;3.53;1.80;;;;;;;;;;4994816;28;20201;-80
2021/01/18 17:05:07;;;;;;;3.80;1.63;;;;;;;;;;5045160;28;20206;-81
2021/01/18 17:07:36;;;;;;;7.60;3.33;;;;;;;;;;5054990;28;20231;-80
2021/01/18 17:10:08;;;;;;;5.10;2.23;;;;;;;;;;5025542;28;20208;-82
2021/01/18 17:12:36;;;;;;;4.47;2.30;;;;;;;;;;5022310;28;20202;-81
2021/01/18 17:15:04;;;;;;;4.57;2.70;;;;;;;;;;5032000;28;20207;-81
2021/01/18 17:17:33;;;;;;;3.73;2.20;;;;;;;;;;5059491;28;20212;-80
2021/01/18 17:20:02;;;;;;;4.67;2.33;;;;;;;;;;5038820;28;20986;-82
2021/01/18 17:22:37;;;;;;;6.57;2.73;;;;;;;;;;5024601;28;20219;-80
2021/01/18 17:25:08;;;;;;;4.70;1.77;;;;;;;;;;5067079;28;20210;-81
2021/01/18 17:27:37;;;;;;;5.17;2.13;;;;;;;;;;5027611;28;20234;-79
2021/01/18 17:30:12;;;;;;;3.97;2.80;;;;;;;;;;5055257;28;20207;-80
2021/01/18 17:32:49;;;;;;;3.87;2.10;;;;;;;;;;5018908;28;20236;-81
2021/01/18 17:35:53;;;;;;;7.57;2.50;;;;;;;;;;5046307;28;20202;-81
2021/01/18 17:42:18;;;;;;;5.53;2.60;;;;;;;;;;5049685;28;20237;-80
2021/01/18 17:45:18;;;;;;;5.67;2.53;;;;;;;;;;5050400;28;20206;-81
2021/01/18 17:48:00;;;;;;;7.20;2.70;;;;;;;;;;5030135;28;20218;-81
2021/01/18 17:55:00;;;;;;;5.77;2.47;;;;;;;;;;5047160;28;20218;-81
2021/01/18 21:25:23;;;;;;;7.13;5.17;;;;;;;;;;5057907;28;20199;-81
2021/01/18 21:27:52;;;;;;;8.67;5.70;;;;;;;;;;5019011;28;20219;-80
2021/01/18 21:30:26;;;;;;;9.63;5.87;;;;;;;;;;5047524;28;20208;-80
2021/01/18 21:32:54;;;;;;;14.50;7.77;;;;;;;;;;5048770;28;20238;-80
2021/01/18 21:35:32;;;;;;;11.80;7.60;;;;;;;;;;5036532;28;20203;-80
2021/01/18 21:42:36;;;;;;;14.90;9.67;;;;;;;;;;4951894;28;20201;-80
2021/01/18 21:45:10;;;;;;;13.40;8.70;;;;;;;;;;4964049;28;20264;-81
2021/01/18 21:47:41;;;;;;;14.47;9.60;;;;;;;;;;4959527;28;20348;-80
2021/01/18 21:50:13;;;;;;;15.17;10.17;;;;;;;;;;4967629;28;20209;-80
2021/01/18 21:52:43;;;;;;;12.70;8.77;;;;;;;;;;4990225;28;20223;-80
2021/01/18 21:55:11;;;;;;;13.80;9.67;;;;;;;;;;5029320;28;20206;-80
2021/01/18 21:57:41;;;;;;;14.50;9.80;;;;;;;;;;5040867;28;20246;-81
2021/01/18 22:00:11;;;;;;;16.20;9.13;;;;;;;;;;5037627;28;20217;-81
2021/01/18 22:02:41;;;;;;;15.30;10.53;;;;;;;;;;5060813;28;20209;-80
2021/01/18 22:05:10;;;;;;;16.53;10.27;;;;;;;;;;5032830;28;20679;-80
2021/01/18 22:07:37;;;;;;;15.63;9.83;;;;;;;;;;5033363;28;20202;-80
2021/01/18 22:10:06;;;;;;;15.80;10.93;;;;;;;;;;5041600;28;20680;-81
2021/01/18 22:12:34;;;;;;;16.23;10.70;;;;;;;;;;5021703;28;20209;-80
2021/01/18 22:15:04;;;;;;;16.13;10.53;;;;;;;;;;5020035;28;20214;-80
2021/01/18 22:17:34;;;;;;;14.77;9.77;;;;;;;;;;5013787;28;20208;-81